Time;durP1;ratioP1;P1;durP2;ratioP2;P2;SDS_P1;SDS_P2;PMS_P1;PMS_P2;Temp;Humidity;BMP_temperature;BMP_pressure;BME280_temperature;BME280_humidity;BME280_pressure;Samples;Min_cycle;Max_cycle;Signal;HPM_P1;HPM_P2
2022/09/22 00:01:10;;;;;;;3.22;1.05;;;9.10;99.90;;;;;;5096684;28;20048;-81
2022/09/22 00:03:41;;;;;;;2.50;1.20;;;9.10;99.90;;;;;;5095149;27;20091;-81
2022/09/22 00:06:13;;;;;;;5.18;1.58;;;10.50;99.90;;;;;;5069166;28;20052;-81
2022/09/22 00:08:41;;;;;;;3.42;1.58;;;9.10;99.90;;;;;;5081750;28;20158;-82
2022/09/22 00:11:16;;;;;;;3.33;1.63;;;9.00;99.90;;;;;;5045513;28;20036;-82
2022/09/22 00:13:51;;;;;;;2.55;1.52;;;9.00;99.90;;;;;;5070625;28;20102;-81
2022/09/22 00:16:20;;;;;;;5.82;1.55;;;9.00;99.90;;;;;;5060336;28;20162;-82
2022/09/22 00:18:45;;;;;;;3.22;1.50;;;10.80;99.90;;;;;;5087127;28;20043;-82
2022/09/22 00:21:17;;;;;;;4.55;1.63;;;9.00;99.90;;;;;;5083204;28;20472;-82
2022/09/22 00:23:45;;;;;;;1.70;1.60;;;10.40;99.90;;;;;;5083759;28;20079;-81
2022/09/22 00:26:14;;;;;;;5.68;1.60;;;8.90;99.90;;;;;;5086292;28;20062;-80
2022/09/22 00:28:41;;;;;;;2.55;1.70;;;8.90;99.90;;;;;;5084705;28;20043;-81
2022/09/22 00:31:11;;;;;;;6.53;1.63;;;8.80;99.90;;;;;;5080083;28;20052;-81
2022/09/22 00:33:38;;;;;;;3.42;2.03;;;8.70;99.90;;;;;;5087132;28;20419;-82
2022/09/22 00:36:04;;;;;;;5.88;1.63;;;10.50;99.90;;;;;;5087907;28;20066;-81
2022/09/22 00:38:30;;;;;;;5.25;1.65;;;8.90;99.90;;;;;;5072029;28;20044;-81
2022/09/22 00:40:56;;;;;;;4.55;1.80;;;8.80;99.90;;;;;;5066533;28;20036;-80
2022/09/22 00:43:29;;;;;;;3.42;1.25;;;8.90;99.90;;;;;;5066042;28;20032;-81
2022/09/22 00:46:02;;;;;;;3.00;1.77;;;8.80;99.90;;;;;;5044648;28;20051;-81
2022/09/22 00:48:32;;;;;;;3.00;1.50;;;8.90;99.90;;;;;;5052714;28;20052;-81
2022/09/22 00:51:00;;;;;;;3.40;1.67;;;10.80;99.90;;;;;;5070779;28;20062;-81
2022/09/22 00:53:26;;;;;;;4.30;1.67;;;9.00;99.90;;;;;;5074225;28;20119;-82
2022/09/22 00:55:54;;;;;;;2.65;1.45;;;8.90;99.90;;;;;;5078443;28;20063;-82
2022/09/22 00:58:26;;;;;;;2.00;1.25;;;8.90;99.90;;;;;;5120488;28;20075;-81
2022/09/22 01:00:52;;;;;;;2.28;1.27;;;8.60;99.90;;;;;;5079012;28;20059;-81
2022/09/22 01:03:21;;;;;;;6.68;1.65;;;8.80;99.90;;;;;;5075490;28;20048;-81
2022/09/22 01:05:50;;;;;;;3.15;1.40;;;8.70;99.90;;;;;;5078455;28;20048;-80
2022/09/22 01:08:19;;;;;;;1.63;1.52;;;8.70;99.90;;;;;;5078528;28;20041;-82
2022/09/22 01:10:46;;;;;;;2.40;1.48;;;8.70;99.90;;;;;;5077428;28;20063;-82
2022/09/22 01:13:38;;;;;;;4.63;1.75;;;8.70;99.90;;;;;;5066723;28;20351;-81
2022/09/22 01:16:19;;;;;;;3.70;1.48;;;10.60;99.90;;;;;;5074157;28;20036;-82
2022/09/22 01:18:54;;;;;;;4.18;1.60;;;8.70;99.90;;;;;;5070699;28;20062;-82
2022/09/22 01:21:37;;;;;;;1.63;1.20;;;8.70;99.90;;;;;;5078698;28;20244;-81
2022/09/22 01:24:06;;;;;;;4.63;1.55;;;8.70;99.90;;;;;;5107983;28;20040;-82
2022/09/22 01:26:54;;;;;;;2.35;1.70;;;8.60;99.90;;;;;;5083005;28;20581;-82
2022/09/22 01:29:32;;;;;;;5.47;1.58;;;8.50;99.90;;;;;;5067020;28;20040;-82
2022/09/22 01:32:03;;;;;;;2.30;1.55;;;8.60;99.90;;;;;;5068360;28;20040;-81
2022/09/22 01:34:35;;;;;;;3.28;1.52;;;8.50;99.90;;;;;;5114171;27;20072;-81
2022/09/22 01:37:22;;;;;;;3.42;1.92;;;9.80;99.90;;;;;;5081558;28;20048;-81
2022/09/22 01:39:52;;;;;;;1.52;1.40;;;8.50;99.90;;;;;;5084616;28;20130;-82
2022/09/22 01:42:35;;;;;;;1.75;1.52;;;9.60;99.90;;;;;;5071630;28;20127;-82
2022/09/22 01:45:10;;;;;;;2.13;1.45;;;8.50;99.90;;;;;;5078002;28;20039;-82
2022/09/22 01:48:13;;;;;;;2.75;1.70;;;8.40;99.90;;;;;;5088195;28;20036;-81
2022/09/22 01:50:43;;;;;;;4.07;1.35;;;8.40;99.90;;;;;;5041776;28;20040;-81
2022/09/22 01:53:13;;;;;;;3.65;1.20;;;8.30;99.90;;;;;;5075122;28;20059;-81
2022/09/22 01:55:43;;;;;;;1.98;1.35;;;9.50;99.90;;;;;;5078072;28;20079;-82
2022/09/22 01:58:24;;;;;;;6.28;1.63;;;8.20;99.90;;;;;;5084790;28;20059;-82
2022/09/22 02:00:59;;;;;;;2.60;1.33;;;8.20;99.90;;;;;;5079670;28;20082;-80
2022/09/22 02:03:59;;;;;;;6.80;1.77;;;8.20;99.90;;;;;;5078446;28;20524;-82
2022/09/22 02:06:46;;;;;;;4.00;1.70;;;8.20;99.90;;;;;;5070804;28;20097;-81
2022/09/22 02:09:17;;;;;;;2.30;1.30;;;8.10;99.90;;;;;;5082656;28;20048;-80
2022/09/22 02:11:43;;;;;;;3.42;1.25;;;8.10;99.90;;;;;;5083217;28;20050;-81
2022/09/22 02:14:09;;;;;;;4.22;1.25;;;9.00;99.90;;;;;;5082454;28;20115;-82
2022/09/22 02:16:35;;;;;;;4.10;1.50;;;8.10;99.90;;;;;;5075849;28;20048;-81
2022/09/22 02:19:24;;;;;;;5.50;1.63;;;9.50;99.90;;;;;;5065088;28;20047;-80
2022/09/22 02:21:50;;;;;;;4.15;1.42;;;8.80;99.90;;;;;;5065271;28;20052;-81
2022/09/22 02:24:36;;;;;;;2.05;1.50;;;8.10;99.90;;;;;;5085422;28;20142;-82
2022/09/22 02:27:13;;;;;;;2.45;1.50;;;8.10;99.90;;;;;;5080302;28;20040;-82
2022/09/22 02:29:45;;;;;;;2.63;1.25;;;9.40;99.90;;;;;;5070821;28;20055;-82
2022/09/22 02:32:15;;;;;;;2.55;1.50;;;8.10;99.90;;;;;;5088166;28;20492;-81
2022/09/22 02:34:41;;;;;;;3.90;1.20;;;8.00;99.90;;;;;;5071142;28;20101;-80
2022/09/22 02:37:49;;;;;;;4.32;1.63;;;8.00;99.90;;;;;;5083673;28;20488;-82
2022/09/22 02:40:29;;;;;;;3.28;1.40;;;8.10;99.90;;;;;;5069120;28;20036;-82
2022/09/22 02:43:08;;;;;;;4.32;1.30;;;8.10;99.90;;;;;;5095909;27;20123;-81
2022/09/22 02:45:45;;;;;;;4.15;1.88;;;8.00;99.90;;;;;;5067182;28;20045;-80
2022/09/22 02:48:18;;;;;;;2.47;1.20;;;8.00;99.90;;;;;;5066568;28;20101;-82
2022/09/22 02:50:44;;;;;;;5.18;1.42;;;7.90;99.90;;;;;;5047871;28;20044;-80
2022/09/22 02:53:13;;;;;;;2.65;1.83;;;9.70;99.90;;;;;;5070880;28;20105;-80
2022/09/22 02:55:40;;;;;;;2.15;1.95;;;8.00;99.90;;;;;;5066888;28;20089;-80
2022/09/22 02:58:05;;;;;;;2.67;1.52;;;8.00;99.90;;;;;;5075247;28;20040;-80
2022/09/22 03:00:31;;;;;;;6.68;2.10;;;7.90;99.90;;;;;;5074645;28;20101;-82
2022/09/22 03:02:58;;;;;;;3.08;1.63;;;8.00;99.90;;;;;;5084718;28;21158;-82
2022/09/22 03:05:24;;;;;;;3.40;1.55;;;8.00;99.90;;;;;;5079153;28;20051;-80
2022/09/22 03:07:49;;;;;;;6.07;2.40;;;9.00;99.90;;;;;;5086343;28;20340;-82
2022/09/22 03:10:15;;;;;;;4.20;1.25;;;7.90;99.90;;;;;;5084883;28;20304;-81
2022/09/22 03:12:44;;;;;;;3.15;1.70;;;7.90;99.90;;;;;;5082418;28;20123;-81
2022/09/22 03:15:10;;;;;;;2.67;1.60;;;9.60;99.90;;;;;;5075851;28;20040;-81
2022/09/22 03:17:37;;;;;;;1.55;1.45;;;7.90;99.90;;;;;;5078990;28;20035;-81
2022/09/22 03:20:05;;;;;;;2.72;1.73;;;9.30;99.90;;;;;;5077635;28;20507;-81
2022/09/22 03:22:31;;;;;;;5.97;1.65;;;7.90;99.90;;;;;;5083890;28;20036;-81
2022/09/22 03:24:57;;;;;;;3.17;1.63;;;7.90;99.90;;;;;;5083544;28;20436;-82
2022/09/22 03:27:23;;;;;;;5.47;2.33;;;7.90;99.90;;;;;;5063922;28;20082;-80
2022/09/22 03:29:48;;;;;;;2.95;1.48;;;7.80;99.90;;;;;;5058618;28;20041;-81
2022/09/22 03:32:14;;;;;;;5.18;1.88;;;7.80;99.90;;;;;;5074199;28;20032;-81
2022/09/22 03:34:39;;;;;;;4.75;1.38;;;7.80;99.90;;;;;;5083430;28;20131;-80
2022/09/22 03:37:05;;;;;;;1.92;1.60;;;7.80;99.90;;;;;;5060605;28;20650;-81
2022/09/22 03:39:31;;;;;;;2.67;1.50;;;9.90;99.90;;;;;;5086366;28;20044;-81
2022/09/22 03:41:57;;;;;;;4.90;1.65;;;7.60;99.90;;;;;;5082900;28;20036;-80
2022/09/22 03:44:22;;;;;;;5.35;1.60;;;7.70;99.90;;;;;;5062635;28;20056;-81
2022/09/22 03:46:48;;;;;;;5.68;1.85;;;7.70;99.90;;;;;;5084607;28;20100;-82
2022/09/22 03:49:16;;;;;;;3.30;1.90;;;7.70;99.90;;;;;;5079762;28;20040;-82
2022/09/22 03:51:41;;;;;;;4.13;1.77;;;7.70;99.90;;;;;;5068191;28;20451;-80
2022/09/22 03:54:07;;;;;;;2.67;1.40;;;7.60;99.90;;;;;;5073530;28;20139;-80
2022/09/22 03:56:33;;;;;;;4.93;1.45;;;7.70;99.90;;;;;;5066164;28;20044;-81
2022/09/22 03:58:59;;;;;;;2.60;1.60;;;9.40;99.90;;;;;;5056474;28;20093;-80
2022/09/22 04:01:25;;;;;;;1.98;1.13;;;9.40;99.90;;;;;;5066488;28;20071;-80
2022/09/22 04:03:50;;;;;;;5.90;1.42;;;7.70;99.90;;;;;;5070803;28;20044;-80
2022/09/22 04:06:16;;;;;;;2.35;1.65;;;8.20;99.90;;;;;;5068972;28;20041;-80
2022/09/22 04:08:42;;;;;;;4.38;1.63;;;9.80;99.90;;;;;;5066485;28;20075;-81
2022/09/22 04:11:07;;;;;;;3.60;1.52;;;9.70;99.90;;;;;;5065180;28;20040;-82
2022/09/22 04:13:34;;;;;;;2.97;1.40;;;7.70;99.90;;;;;;5063494;28;20463;-80
2022/09/22 04:16:01;;;;;;;1.92;1.50;;;7.70;99.90;;;;;;5066439;28;20565;-80
2022/09/22 04:18:28;;;;;;;3.65;1.55;;;7.60;99.90;;;;;;5075660;28;20081;-80
2022/09/22 04:20:58;;;;;;;3.25;1.65;;;8.50;99.90;;;;;;5062166;28;20055;-81
2022/09/22 04:23:24;;;;;;;1.85;1.27;;;7.60;99.90;;;;;;5067335;28;20430;-81
2022/09/22 04:25:53;;;;;;;4.97;1.63;;;7.90;99.90;;;;;;5083783;28;20067;-81
2022/09/22 04:28:19;;;;;;;6.55;1.33;;;7.50;99.90;;;;;;5084262;28;20087;-82
2022/09/22 04:30:46;;;;;;;2.88;1.48;;;7.50;99.90;;;;;;5116299;28;20491;-80
2022/09/22 04:33:11;;;;;;;3.08;1.30;;;7.50;99.90;;;;;;5086387;28;20093;-80
2022/09/22 04:35:40;;;;;;;4.72;1.67;;;7.50;99.90;;;;;;5089311;28;20515;-81
2022/09/22 04:38:05;;;;;;;3.03;1.20;;;7.90;99.90;;;;;;5060100;28;20048;-80
2022/09/22 04:40:32;;;;;;;4.68;1.42;;;7.50;99.90;;;;;;5063628;28;20502;-80
2022/09/22 04:42:58;;;;;;;4.82;1.45;;;7.50;99.90;;;;;;5067845;28;20037;-81
2022/09/22 04:45:23;;;;;;;2.08;1.50;;;7.50;99.90;;;;;;5066840;28;20388;-80
2022/09/22 04:47:51;;;;;;;1.65;1.55;;;7.50;99.90;;;;;;5054958;28;20036;-80
2022/09/22 04:50:19;;;;;;;4.07;1.80;;;7.50;99.90;;;;;;5066521;28;20145;-80
2022/09/22 04:52:47;;;;;;;4.60;1.88;;;7.40;99.90;;;;;;5072226;28;20036;-81
2022/09/22 04:55:14;;;;;;;2.80;1.67;;;7.40;99.90;;;;;;5069916;28;20052;-82
2022/09/22 04:57:40;;;;;;;3.83;1.83;;;7.40;99.90;;;;;;5053477;28;20047;-81
2022/09/22 05:00:07;;;;;;;3.60;1.60;;;7.40;99.90;;;;;;5064210;28;20052;-80
2022/09/22 05:02:36;;;;;;;3.03;1.80;;;7.40;99.90;;;;;;5066483;28;20047;-81
2022/09/22 05:05:03;;;;;;;5.75;1.95;;;7.40;99.90;;;;;;5060961;28;20245;-81
2022/09/22 05:07:29;;;;;;;5.10;2.00;;;7.40;99.90;;;;;;5097623;28;20044;-80
2022/09/22 05:09:55;;;;;;;4.53;1.70;;;8.50;99.90;;;;;;5067028;28;20355;-80
2022/09/22 05:12:20;;;;;;;2.58;1.88;;;6.40;99.90;;;;;;5066158;28;20039;-82
2022/09/22 05:14:47;;;;;;;2.55;1.80;;;7.30;99.90;;;;;;5070814;28;20543;-80
2022/09/22 05:17:13;;;;;;;4.05;1.73;;;7.30;99.90;;;;;;5053324;28;20052;-81
2022/09/22 05:19:39;;;;;;;4.72;2.20;;;7.30;99.90;;;;;;5074211;28;20052;-80
2022/09/22 05:22:05;;;;;;;2.72;1.80;;;7.30;99.90;;;;;;5069416;28;20464;-80
2022/09/22 05:24:31;;;;;;;1.88;1.77;;;7.30;99.90;;;;;;5074012;28;20044;-81
2022/09/22 05:26:57;;;;;;;4.45;2.13;;;7.20;99.90;;;;;;5074505;28;20037;-81
2022/09/22 05:29:24;;;;;;;3.53;1.80;;;7.20;99.90;;;;;;5059704;28;21019;-81
2022/09/22 05:31:49;;;;;;;2.95;2.00;;;7.10;99.90;;;;;;5073596;28;20445;-80
2022/09/22 05:34:15;;;;;;;4.65;2.03;;;7.20;99.90;;;;;;5070976;28;20032;-80
2022/09/22 05:36:41;;;;;;;6.50;2.08;;;7.20;99.90;;;;;;5071664;28;21556;-81
2022/09/22 05:39:07;;;;;;;7.65;2.45;;;8.30;99.90;;;;;;5070850;28;20518;-81
2022/09/22 05:41:32;;;;;;;2.90;2.05;;;7.20;99.90;;;;;;5072095;28;20076;-80
2022/09/22 05:43:58;;;;;;;4.05;2.10;;;7.20;99.90;;;;;;5074344;28;20052;-80
2022/09/22 05:46:23;;;;;;;5.40;2.50;;;7.20;99.90;;;;;;5068832;28;20063;-80
2022/09/22 05:48:49;;;;;;;2.38;1.75;;;8.70;99.90;;;;;;4734712;28;9999661;-81
2022/09/22 05:51:15;;;;;;;4.00;2.42;;;7.10;99.90;;;;;;5087053;28;20047;-80
2022/09/22 05:53:40;;;;;;;2.15;1.95;;;7.10;99.90;;;;;;5086651;28;20507;-80
2022/09/22 05:56:06;;;;;;;3.33;2.15;;;8.20;99.90;;;;;;5085605;28;20047;-80
2022/09/22 05:58:31;;;;;;;6.20;2.47;;;5.90;99.90;;;;;;5069002;28;20044;-80
2022/09/22 06:00:57;;;;;;;6.03;3.10;;;7.10;99.90;;;;;;5086976;28;20098;-81
2022/09/22 06:03:23;;;;;;;7.80;2.78;;;7.20;99.90;;;;;;5086905;28;20087;-81
2022/09/22 06:05:49;;;;;;;15.68;3.95;;;6.10;99.90;;;;;;5090125;28;20054;-79
2022/09/22 06:08:15;;;;;;;8.55;2.85;;;7.60;99.90;;;;;;5064201;28;20097;-80
2022/09/22 06:10:41;;;;;;;15.30;3.72;;;7.20;99.90;;;;;;5080758;28;20040;-80
2022/09/22 06:13:09;;;;;;;14.10;3.85;;;7.20;99.90;;;;;;5080657;28;20039;-80
2022/09/22 06:15:35;;;;;;;23.27;4.90;;;8.80;99.90;;;;;;5084462;28;20051;-80
2022/09/22 06:18:04;;;;;;;19.83;4.70;;;8.70;99.90;;;;;;5084030;28;20051;-80
2022/09/22 06:20:30;;;;;;;17.27;5.07;;;7.30;99.90;;;;;;5078580;28;20044;-80
2022/09/22 06:22:56;;;;;;;27.58;5.15;;;7.30;99.90;;;;;;5061119;28;20052;-80
2022/09/22 06:25:22;;;;;;;19.08;4.40;;;7.30;99.90;;;;;;5071783;28;20613;-82
2022/09/22 06:28:01;;;;;;;14.40;4.47;;;8.80;99.90;;;;;;5079628;28;20553;-81
2022/09/22 06:30:27;;;;;;;15.52;5.25;;;7.40;99.90;;;;;;5085748;28;20055;-80
2022/09/22 06:32:54;;;;;;;11.38;5.35;;;9.10;99.90;;;;;;5089822;28;20040;-80
2022/09/22 06:35:19;;;;;;;10.00;4.82;;;7.60;99.90;;;;;;5071770;28;20116;-80
2022/09/22 06:37:47;;;;;;;7.60;4.72;;;7.50;99.90;;;;;;5119612;27;20032;-82
2022/09/22 06:40:13;;;;;;;10.30;4.20;;;7.50;99.90;;;;;;5083066;28;20491;-82
2022/09/22 06:42:41;;;;;;;5.82;4.25;;;7.60;99.90;;;;;;5074513;28;20032;-81
2022/09/22 06:45:07;;;;;;;8.13;4.60;;;8.80;99.90;;;;;;5085369;28;20048;-80
2022/09/22 06:47:33;;;;;;;5.03;3.38;;;7.60;99.90;;;;;;5088882;28;20069;-80
2022/09/22 06:50:04;;;;;;;6.25;4.03;;;7.70;99.90;;;;;;5088566;28;20462;-79
2022/09/22 06:52:30;;;;;;;10.13;5.80;;;7.70;99.90;;;;;;5077587;28;20427;-81
2022/09/22 06:54:58;;;;;;;14.88;10.07;;;8.20;99.90;;;;;;5065090;28;20675;-80
2022/09/22 06:57:31;;;;;;;9.77;7.20;;;7.80;99.90;;;;;;5087324;28;20101;-82
2022/09/22 06:59:58;;;;;;;8.85;4.63;;;8.60;99.90;;;;;;5087081;28;20058;-80
2022/09/22 07:02:28;;;;;;;5.57;4.32;;;7.80;99.90;;;;;;5089174;28;20075;-82
2022/09/22 07:04:57;;;;;;;8.05;4.45;;;8.00;99.90;;;;;;5088455;28;20507;-80
2022/09/22 07:07:27;;;;;;;9.32;5.03;;;9.30;99.90;;;;;;5087141;28;20043;-81
2022/09/22 07:09:53;;;;;;;9.02;5.00;;;8.10;99.90;;;;;;5069987;28;20044;-80
2022/09/22 07:12:21;;;;;;;8.70;5.20;;;8.10;99.90;;;;;;5087942;28;20047;-81
2022/09/22 07:14:51;;;;;;;14.05;6.22;;;8.20;99.90;;;;;;5089516;28;20123;-82
2022/09/22 07:17:19;;;;;;;11.88;5.25;;;9.80;99.90;;;;;;5086456;28;20137;-80
2022/09/22 07:19:50;;;;;;;12.20;5.63;;;9.90;99.90;;;;;;5087378;28;20051;-82
2022/09/22 07:22:18;;;;;;;8.35;5.40;;;8.40;99.90;;;;;;5088146;28;20040;-82
2022/09/22 07:24:43;;;;;;;9.07;6.00;;;9.00;99.90;;;;;;5070561;28;20621;-81
2022/09/22 07:27:11;;;;;;;9.50;5.22;;;8.50;99.90;;;;;;5067493;28;20111;-82
2022/09/22 07:29:38;;;;;;;8.63;5.68;;;8.60;99.90;;;;;;5088923;28;20036;-83
2022/09/22 07:32:04;;;;;;;12.75;6.18;;;8.70;99.90;;;;;;5068844;28;20040;-83
2022/09/22 07:34:30;;;;;;;7.57;5.45;;;8.80;99.90;;;;;;5087399;28;20089;-86
2022/09/22 07:36:56;;;;;;;10.30;5.95;;;10.30;99.90;;;;;;5069441;28;20044;-81
2022/09/22 07:39:23;;;;;;;10.18;5.57;;;8.90;99.90;;;;;;5087200;28;20118;-80
2022/09/22 07:41:49;;;;;;;14.90;6.65;;;9.00;99.90;;;;;;5088455;28;20044;-83
2022/09/22 07:47:02;;;;;;;7.65;4.93;;;10.00;99.90;;;;;;5081838;28;20049;-82
2022/09/22 07:49:28;;;;;;;8.48;4.65;;;9.20;99.90;;;;;;5067965;28;20043;-81
2022/09/22 07:51:56;;;;;;;5.88;4.65;;;11.00;99.90;;;;;;5086527;28;20056;-80
2022/09/22 07:54:22;;;;;;;7.38;4.50;;;10.90;99.90;;;;;;5089030;28;20040;-82
2022/09/22 07:56:48;;;;;;;10.27;4.40;;;9.40;99.90;;;;;;5087336;28;20044;-83
2022/09/22 07:59:15;;;;;;;8.90;6.53;;;9.50;99.90;;;;;;5086421;28;20043;-80
2022/09/22 08:01:47;;;;;;;21.17;13.80;;;9.60;99.90;;;;;;5086051;28;20097;-81
2022/09/22 08:04:17;;;;;;;9.38;5.07;;;10.00;99.90;;;;;;5069920;28;20073;-87
2022/09/22 08:06:44;;;;;;;11.35;5.45;;;9.70;99.90;;;;;;5086698;28;20047;-83
2022/09/22 08:09:10;;;;;;;7.70;4.43;;;9.90;99.90;;;;;;5070283;28;20437;-83
2022/09/22 08:11:37;;;;;;;4.65;3.38;;;9.90;99.90;;;;;;5087071;28;20040;-81
2022/09/22 08:14:10;;;;;;;8.30;4.20;;;10.00;99.90;;;;;;5120525;27;20040;-81
2022/09/22 08:16:38;;;;;;;6.75;3.90;;;10.00;99.90;;;;;;5081874;28;20040;-82
2022/09/22 08:19:11;;;;;;;8.95;4.55;;;10.10;99.90;;;;;;5087195;28;20114;-83
2022/09/22 08:21:38;;;;;;;6.95;3.90;;;10.20;99.90;;;;;;5064710;28;20463;-81
2022/09/22 08:24:06;;;;;;;7.75;3.60;;;10.40;99.90;;;;;;5085370;28;20586;-86
2022/09/22 08:26:32;;;;;;;8.23;4.20;;;10.50;99.90;;;;;;5086916;28;20116;-85
2022/09/22 08:28:58;;;;;;;8.30;3.70;;;11.70;99.90;;;;;;5086014;28;20054;-84
2022/09/22 08:31:25;;;;;;;7.85;3.88;;;10.60;99.90;;;;;;5085134;28;20127;-81
2022/09/22 08:33:52;;;;;;;8.13;4.18;;;10.70;99.90;;;;;;5086876;28;20051;-82
2022/09/22 08:36:19;;;;;;;6.63;3.20;;;10.80;99.90;;;;;;5086378;28;20039;-83
2022/09/22 08:38:47;;;;;;;6.97;4.22;;;10.90;99.90;;;;;;5086908;28;20422;-81
2022/09/22 08:41:19;;;;;;;7.38;3.95;;;11.00;99.90;;;;;;5068926;28;20072;-84
2022/09/22 08:43:54;;;;;;;10.90;3.97;;;11.10;99.90;;;;;;5083566;28;20105;-82
2022/09/22 08:46:32;;;;;;;7.05;3.15;;;12.40;99.90;;;;;;5083362;28;20131;-84
2022/09/22 08:52:51;;;;;;;;;;;11.40;99.90;;;;;;5081636;28;20052;-80
2022/09/22 08:55:22;;;;;;;7.63;2.92;;;11.40;99.90;;;;;;5086299;28;19924;-81
2022/09/22 08:58:10;;;;;;;8.13;3.40;;;11.50;99.90;;;;;;5091707;28;20046;-84
2022/09/22 09:00:39;;;;;;;9.13;3.05;;;12.60;99.90;;;;;;5119320;27;20067;-84
2022/09/22 09:03:17;;;;;;;5.85;3.10;;;12.80;99.90;;;;;;5088087;28;20056;-84
2022/09/22 09:05:58;;;;;;;8.23;3.30;;;11.90;99.90;;;;;;5072249;28;20130;-84
2022/09/22 09:08:42;;;;;;;13.30;2.58;;;11.90;99.90;;;;;;5083114;28;20374;-81
2022/09/22 09:11:23;;;;;;;7.50;2.72;;;12.00;99.90;;;;;;5088970;28;20154;-84
2022/09/22 09:13:54;;;;;;;6.15;2.50;;;12.10;99.90;;;;;;5072608;28;20044;-81
2022/09/22 09:16:32;;;;;;;9.35;2.30;;;12.30;99.90;;;;;;5064870;28;20040;-82
2022/09/22 09:19:37;;;;;;;14.07;3.15;;;12.40;99.90;;;;;;5091386;28;20036;-84
2022/09/22 09:22:12;;;;;;;10.63;2.92;;;12.50;99.90;;;;;;5085945;28;20514;-85
2022/09/22 09:24:54;;;;;;;6.13;2.35;;;12.60;99.90;;;;;;5088973;28;20085;-84
2022/09/22 09:27:23;;;;;;;3.80;1.95;;;12.70;99.90;;;;;;5082082;28;20043;-85
2022/09/22 09:30:08;;;;;;;4.60;1.90;;;14.20;99.90;;;;;;5091470;28;20036;-84
2022/09/22 09:32:42;;;;;;;14.43;5.97;;;12.90;99.90;;;;;;5112260;27;20602;-83
2022/09/22 09:35:11;;;;;;;;;;;13.00;99.90;;;;;;5066762;28;20488;-83
2022/09/22 09:37:39;;;;;;;12.25;2.40;;;13.00;99.90;;;;;;5089350;28;19974;-83
2022/09/22 09:40:14;;;;;;;3.90;1.58;;;13.10;99.90;;;;;;5087146;28;20059;-81
2022/09/22 09:42:41;;;;;;;2.95;1.45;;;13.30;99.90;;;;;;5087905;28;20094;-83
2022/09/22 09:45:15;;;;;;;5.68;1.70;;;14.10;99.90;;;;;;5089078;28;20055;-81
2022/09/22 09:47:51;;;;;;;4.32;1.52;;;13.40;99.90;;;;;;5068143;28;20052;-82
2022/09/22 09:50:17;;;;;;;3.80;2.25;;;14.60;99.90;;;;;;5088999;28;20531;-83
2022/09/22 09:52:44;;;;;;;3.50;2.55;;;13.60;99.90;;;;;;5087673;28;20515;-82
2022/09/22 09:55:27;;;;;;;4.75;2.55;;;13.70;99.90;;;;;;5088949;28;20087;-82
2022/09/22 09:58:10;;;;;;;3.78;2.30;;;13.70;99.90;;;;;;5089281;28;20089;-81
2022/09/22 10:00:58;;;;;;;10.07;2.55;;;13.90;99.90;;;;;;5071956;28;20244;-82
2022/09/22 10:03:32;;;;;;;5.18;2.22;;;13.80;99.90;;;;;;5089507;28;20093;-81
2022/09/22 10:06:03;;;;;;;4.50;1.92;;;14.70;99.90;;;;;;5082164;28;20056;-81
2022/09/22 10:08:33;;;;;;;4.80;2.10;;;14.10;99.90;;;;;;5062953;28;20032;-82
2022/09/22 10:11:00;;;;;;;4.47;1.48;;;14.10;99.90;;;;;;5089371;28;20048;-85
2022/09/22 10:13:37;;;;;;;5.88;2.28;;;14.60;99.90;;;;;;5089878;28;20044;-82
2022/09/22 10:16:24;;;;;;;6.53;2.90;;;14.30;99.90;;;;;;5090023;28;20119;-84
2022/09/22 10:18:57;;;;;;;6.82;2.80;;;14.30;99.90;;;;;;5100610;28;20036;-83
2022/09/22 10:21:24;;;;;;;5.88;2.60;;;14.40;99.90;;;;;;5088516;28;20105;-83
2022/09/22 10:23:58;;;;;;;4.75;2.10;;;14.90;99.90;;;;;;5072318;28;20052;-82
2022/09/22 10:26:29;;;;;;;7.75;3.03;;;14.60;99.90;;;;;;5089200;28;20095;-82
2022/09/22 10:29:19;;;;;;;8.05;4.13;;;14.60;99.90;;;;;;5090194;28;20036;-85
2022/09/22 10:32:02;;;;;;;5.63;2.70;;;14.70;99.90;;;;;;5082509;28;20044;-82
2022/09/22 10:34:30;;;;;;;6.22;3.05;;;14.80;99.90;;;;;;5075241;28;20040;-82
2022/09/22 10:36:57;;;;;;;4.20;2.15;;;14.90;99.90;;;;;;5088126;28;20075;-82
2022/09/22 10:39:36;;;;;;;4.68;1.77;;;15.00;99.90;;;;;;5084217;28;20048;-83
2022/09/22 10:42:06;;;;;;;7.22;2.17;;;15.10;99.90;;;;;;5082639;28;20059;-81
2022/09/22 10:44:33;;;;;;;4.47;1.50;;;15.10;99.90;;;;;;5063892;28;20089;-82
2022/09/22 10:47:29;;;;;;;3.80;1.83;;;15.10;99.90;;;;;;5088220;28;20131;-81
2022/09/22 10:50:21;;;;;;;5.93;2.55;;;15.10;99.90;;;;;;5099901;28;20040;-82
2022/09/22 10:53:05;;;;;;;3.72;2.13;;;15.20;99.90;;;;;;5082063;28;20074;-83
2022/09/22 10:55:57;;;;;;;6.30;1.42;;;15.20;99.90;;;;;;5081618;28;20133;-81
2022/09/22 10:58:53;;;;;;;2.42;1.42;;;15.30;99.90;;;;;;5065890;28;20051;-82
2022/09/22 11:01:45;;;;;;;4.90;1.77;;;15.50;99.90;;;;;;5089884;28;20071;-81
2022/09/22 11:04:29;;;;;;;1.95;1.55;;;15.60;99.90;;;;;;5110870;27;20059;-82
2022/09/22 11:13:30;;;;;;;5.45;2.15;;;15.90;99.90;;;;;;5087310;28;20126;-80
2022/09/22 11:16:13;;;;;;;5.65;2.05;;;16.10;99.90;;;;;;5090554;28;20443;-81
2022/09/22 11:19:09;;;;;;;7.13;2.70;;;16.10;99.90;;;;;;5086945;28;20499;-84
2022/09/22 11:22:02;;;;;;;;;;;16.10;99.90;;;;;;5068952;28;20131;-81
2022/09/22 11:24:59;;;;;;;7.30;2.50;;;16.00;99.90;;;;;;5104416;27;19928;-83
2022/09/22 11:27:43;;;;;;;6.30;2.67;;;16.00;99.90;;;;;;5089627;28;20162;-84
2022/09/22 11:30:20;;;;;;;7.72;3.67;;;16.00;99.90;;;;;;5075247;28;20127;-82
2022/09/22 11:33:24;;;;;;;6.50;3.38;;;16.10;99.90;;;;;;5088900;28;20038;-83
2022/09/22 11:36:11;;;;;;;2.90;2.47;;;16.20;99.90;;;;;;5090528;28;20052;-80
2022/09/22 11:38:57;;;;;;;6.75;2.65;;;16.20;99.90;;;;;;5090301;28;20105;-81
2022/09/22 11:42:02;;;;;;;6.45;2.80;;;16.30;99.90;;;;;;5088464;28;20031;-82
2022/09/22 11:44:37;;;;;;;6.05;2.15;;;16.20;99.90;;;;;;5031084;28;20063;-82
2022/09/22 11:47:29;;;;;;;;;;;16.20;99.90;;;;;;5089541;28;20051;-82
2022/09/22 11:50:07;;;;;;;5.32;3.00;;;16.30;99.90;;;;;;5089049;28;19920;-83
2022/09/22 11:52:42;;;;;;;3.80;2.97;;;16.50;99.90;;;;;;5082267;28;20068;-82
2022/09/22 11:55:24;;;;;;;9.25;3.00;;;16.70;99.90;;;;;;5070960;28;20097;-82
2022/09/22 11:57:56;;;;;;;9.13;3.15;;;16.80;99.90;;;;;;5076648;28;20059;-79
2022/09/22 12:00:22;;;;;;;5.05;2.88;;;17.00;99.90;;;;;;5058343;28;20083;-80
2022/09/22 12:03:03;;;;;;;5.25;2.67;;;17.10;99.90;;;;;;5063255;28;20130;-82
2022/09/22 12:05:41;;;;;;;7.53;2.92;;;17.20;99.90;;;;;;5081957;28;20048;-84
2022/09/22 12:08:12;;;;;;;2.45;2.13;;;17.20;99.90;;;;;;5083868;28;20465;-83
2022/09/22 12:10:43;;;;;;;7.50;3.00;;;17.20;99.90;;;;;;5088022;28;20047;-80
2022/09/22 12:13:22;;;;;;;4.78;2.90;;;17.20;99.90;;;;;;5085016;28;20028;-81
2022/09/22 12:16:12;;;;;;;5.20;2.63;;;17.10;99.90;;;;;;5088746;28;20051;-81
2022/09/22 12:18:53;;;;;;;5.70;2.58;;;16.90;99.90;;;;;;5085201;28;20076;-80
2022/09/22 12:21:27;;;;;;;22.23;15.23;;;16.70;99.90;;;;;;5103265;27;20040;-80
2022/09/22 12:23:54;;;;;;;4.65;3.28;;;16.60;99.90;;;;;;5084550;28;20040;-81
2022/09/22 12:26:31;;;;;;;5.72;2.25;;;16.70;99.90;;;;;;5085006;28;20457;-79
2022/09/22 12:29:00;;;;;;;4.45;2.60;;;16.90;99.90;;;;;;5086761;28;20051;-80
2022/09/22 12:31:35;;;;;;;8.93;2.42;;;17.20;99.90;;;;;;5090837;28;20067;-80
2022/09/22 12:34:03;;;;;;;6.18;2.28;;;17.40;99.90;;;;;;5107898;28;20123;-81
2022/09/22 12:36:35;;;;;;;5.88;2.55;;;17.60;99.90;;;;;;5061919;28;20048;-82
2022/09/22 12:39:22;;;;;;;6.43;2.25;;;17.70;99.90;;;;;;5081876;28;20048;-81
2022/09/22 12:42:00;;;;;;;5.35;1.85;;;17.60;99.90;;;;;;5085631;28;20245;-80
2022/09/22 12:44:30;;;;;;;7.07;2.47;;;17.60;99.90;;;;;;5070059;28;20093;-81
2022/09/22 12:47:25;;;;;;;5.47;1.88;;;17.60;99.90;;;;;;5066357;28;20071;-81
2022/09/22 12:49:55;;;;;;;6.00;2.13;;;17.70;99.90;;;;;;5080905;28;20060;-81
2022/09/22 12:52:39;;;;;;;5.82;1.77;;;17.90;99.90;;;;;;5082918;28;20052;-80
2022/09/22 12:55:26;;;;;;;21.60;16.50;;;17.90;99.90;;;;;;5084548;28;20122;-81
2022/09/22 12:57:54;;;;;;;19.85;13.40;;;17.80;99.90;;;;;;5067621;28;20040;-79
2022/09/22 13:00:39;;;;;;;7.78;2.83;;;17.70;99.90;;;;;;5087391;28;20077;-81
2022/09/22 13:03:23;;;;;;;20.05;3.78;;;17.80;99.90;;;;;;5089036;28;20052;-80
2022/09/22 13:06:21;;;;;;;4.90;2.63;;;18.00;99.90;;;;;;5090113;28;20048;-84
2022/09/22 13:08:53;;;;;;;4.68;2.47;;;18.00;99.90;;;;;;5044138;28;20062;-83
2022/09/22 13:11:39;;;;;;;4.38;2.65;;;18.20;99.90;;;;;;5089313;28;20130;-83
2022/09/22 13:14:51;;;;;;;7.80;2.47;;;18.20;99.90;;;;;;5089678;28;20529;-80
2022/09/22 13:17:32;;;;;;;5.20;2.60;;;18.30;99.90;;;;;;5086103;28;20186;-82
2022/09/22 13:19:58;;;;;;;8.23;2.35;;;18.40;99.90;;;;;;5085728;28;20138;-78
2022/09/22 13:22:24;;;;;;;5.70;2.13;;;18.50;99.90;;;;;;5085546;28;20626;-79
2022/09/22 13:24:50;;;;;;;5.20;2.25;;;18.50;99.30;;;;;;5080637;28;20040;-80
2022/09/22 13:27:16;;;;;;;6.82;2.30;;;18.00;99.20;;;;;;5068055;28;20082;-80
2022/09/22 13:29:56;;;;;;;5.57;2.35;;;18.50;98.70;;;;;;5104965;28;20404;-78
2022/09/22 13:32:25;;;;;;;8.10;2.60;;;18.30;98.40;;;;;;5085892;28;20107;-82